Terminal Aerodrome Forecast
Issued by NWS Detroit/Pontiac, MI

Home | Current Version | Previous Version | Text Only | Print | Product List | Glossary On
Versions: 1 2 3 4 5 6 7 8 9 10 11 12 13 14 15 16
000
FTUS43 KDTX 070905 AAA
TAFFNT
TAF AMD
KFNT 070905Z 0709/0806 15003KT 3/4SM BR SCT250
     FM071300 15003KT 2SM BR SCT008
     FM071500 17005KT P6SM SCT045=

USA.gov is the U.S. government's official web portal to all federal, state and local government web resources and services.